createdAt,value
2022-10-08T00:01:12.504Z,39.15
2022-10-08T00:03:43.431Z,38.03
2022-10-08T00:06:15.107Z,38.53
2022-10-08T00:08:53.974Z,35.05
2022-10-08T00:11:23.639Z,36.53
2022-10-08T00:13:51.609Z,38.08
2022-10-08T00:16:30.323Z,37.15
2022-10-08T00:19:01.313Z,37.67
2022-10-08T00:21:31.674Z,37.15
2022-10-08T00:23:59.241Z,35.47
2022-10-08T00:26:28.844Z,36.83
2022-10-08T00:28:57.416Z,39.03
2022-10-08T00:31:28.858Z,39.40
2022-10-08T00:33:57.239Z,39.95
2022-10-08T00:36:26.966Z,42.08
2022-10-08T00:38:56.734Z,42.20
2022-10-08T00:41:25.614Z,39.15
2022-10-08T00:43:55.091Z,39.53
2022-10-08T00:46:25.324Z,38.45
2022-10-08T00:49:01.795Z,40.58
2022-10-08T00:51:29.972Z,37.72
2022-10-08T00:53:56.657Z,37.40
2022-10-08T00:56:24.301Z,37.83
2022-10-08T00:58:52.184Z,39.05
2022-10-08T01:01:19.933Z,40.35
2022-10-08T01:03:46.603Z,41.80
2022-10-08T01:06:20.447Z,41.47
2022-10-08T01:09:02.260Z,41.40
2022-10-08T01:11:44.302Z,42.08
2022-10-08T01:14:39.564Z,41.80
2022-10-08T01:17:22.430Z,41.20
2022-10-08T01:20:05.569Z,38.38
2022-10-08T01:22:47.769Z,38.90
2022-10-08T01:25:38.329Z,41.88
2022-10-08T01:28:21.359Z,39.35
2022-10-08T01:31:15.787Z,40.75
2022-10-08T01:33:50.931Z,38.25
2022-10-08T01:36:19.968Z,41.40
2022-10-08T01:38:53.357Z,39.80
2022-10-08T01:41:24.905Z,40.63
2022-10-08T01:44:01.893Z,41.08
2022-10-08T01:46:31.760Z,40.35
2022-10-08T01:49:04.612Z,40.15
2022-10-08T01:51:40.871Z,40.00
2022-10-08T01:56:39.936Z,38.90
2022-10-08T01:59:18.292Z,39.95
2022-10-08T02:01:59.996Z,39.42
2022-10-08T02:04:33.219Z,38.65
2022-10-08T02:07:02.623Z,40.85
2022-10-08T02:09:32.404Z,41.30
2022-10-08T02:11:59.072Z,40.95
2022-10-08T02:14:27.951Z,38.25
2022-10-08T02:17:17.824Z,40.63
2022-10-08T02:19:53.047Z,39.83
2022-10-08T02:22:24.357Z,41.85
2022-10-08T02:24:57.256Z,39.75
2022-10-08T02:27:33.328Z,41.33
2022-10-08T02:30:11.119Z,42.03
2022-10-08T02:32:51.081Z,41.45
2022-10-08T02:35:25.409Z,42.38
2022-10-08T02:37:59.668Z,43.45
2022-10-08T02:40:30.479Z,41.30
2022-10-08T02:43:05.449Z,43.05
2022-10-08T02:45:38.179Z,43.95
2022-10-08T02:48:11.875Z,46.05
2022-10-08T02:50:43.218Z,43.13
2022-10-08T02:53:14.640Z,42.83
2022-10-08T02:55:54.813Z,42.67
2022-10-08T02:58:22.030Z,43.00
2022-10-08T03:01:06.089Z,41.05
2022-10-08T03:03:36.843Z,43.78
2022-10-08T03:06:08.857Z,44.20
2022-10-08T03:08:41.142Z,45.00
2022-10-08T03:11:07.837Z,45.17
2022-10-08T03:13:39.643Z,44.35
2022-10-08T03:16:11.460Z,43.85
2022-10-08T03:18:39.000Z,46.40
2022-10-08T03:21:08.861Z,45.33
2022-10-08T03:23:35.837Z,46.10
2022-10-08T03:26:02.450Z,43.53
2022-10-08T03:28:29.137Z,43.95
2022-10-08T03:30:55.910Z,45.75
2022-10-08T03:33:23.622Z,43.83
2022-10-08T03:35:50.368Z,47.50
2022-10-08T03:38:17.476Z,43.17
2022-10-08T03:40:54.791Z,44.40
2022-10-08T03:43:22.086Z,44.60
2022-10-08T03:45:52.375Z,45.75
2022-10-08T03:48:20.595Z,43.88
2022-10-08T03:50:57.262Z,42.92
2022-10-08T03:53:25.166Z,41.97
2022-10-08T03:55:52.400Z,45.63
2022-10-08T03:58:19.662Z,44.38
2022-10-08T04:01:03.394Z,47.30
2022-10-08T04:03:31.449Z,46.55
2022-10-08T04:05:58.481Z,50.38
2022-10-08T04:08:26.156Z,51.47
2022-10-08T04:10:56.391Z,49.30
2022-10-08T04:13:26.497Z,48.70
2022-10-08T04:15:53.144Z,49.42
2022-10-08T04:18:19.760Z,49.45
2022-10-08T04:20:46.405Z,47.50
2022-10-08T04:23:13.085Z,48.95
2022-10-08T04:25:49.268Z,44.50
2022-10-08T04:28:15.908Z,47.75
2022-10-08T04:30:42.617Z,46.75
2022-10-08T04:33:09.401Z,45.75
2022-10-08T04:35:38.276Z,49.15
2022-10-08T04:38:04.874Z,46.97
2022-10-08T04:40:31.492Z,45.03
2022-10-08T04:42:58.355Z,45.90
2022-10-08T04:45:24.968Z,44.85
2022-10-08T04:47:51.614Z,44.53
2022-10-08T04:50:18.239Z,43.67
2022-10-08T04:52:45.271Z,44.92
2022-10-08T04:55:12.081Z,41.80
2022-10-08T04:57:38.704Z,42.35
2022-10-08T05:00:18.414Z,42.10
2022-10-08T05:02:46.136Z,43.15
2022-10-08T05:05:13.055Z,43.85
2022-10-08T05:07:39.692Z,43.50
2022-10-08T05:10:06.642Z,44.33
2022-10-08T05:12:33.471Z,43.03
2022-10-08T05:15:00.165Z,44.08
2022-10-08T05:17:26.965Z,43.72
2022-10-08T05:19:53.668Z,43.38
2022-10-08T05:22:20.307Z,44.75
2022-10-08T05:24:46.904Z,44.63
2022-10-08T05:27:13.538Z,45.08
2022-10-08T05:29:40.154Z,42.50
2022-10-08T05:32:10.127Z,44.15
2022-10-08T05:34:36.760Z,41.72
2022-10-08T05:37:03.421Z,42.10
2022-10-08T05:39:30.295Z,42.70
2022-10-08T05:41:56.916Z,42.40
2022-10-08T05:44:23.565Z,44.83
2022-10-08T05:46:50.264Z,44.25
2022-10-08T05:49:23.154Z,44.38
2022-10-08T05:51:50.618Z,43.88
2022-10-08T05:54:18.761Z,40.58
2022-10-08T05:56:45.650Z,41.30
2022-10-08T05:59:27.634Z,41.28
2022-10-08T06:01:54.315Z,42.38
2022-10-08T06:04:21.082Z,39.28
2022-10-08T06:06:48.035Z,42.38
2022-10-08T06:09:18.308Z,40.30
2022-10-08T06:11:45.651Z,41.00
2022-10-08T06:14:14.071Z,41.25
2022-10-08T06:16:41.139Z,41.63
2022-10-08T06:19:08.536Z,41.92
2022-10-08T06:21:36.220Z,42.00
2022-10-08T06:24:05.525Z,41.22
2022-10-08T06:26:36.612Z,41.90
2022-10-08T06:29:05.848Z,41.22
2022-10-08T06:31:34.366Z,41.45
2022-10-08T06:34:04.116Z,41.55
2022-10-08T06:36:31.707Z,40.00
2022-10-08T06:39:00.368Z,39.63
2022-10-08T06:41:30.424Z,40.22
2022-10-08T06:43:57.192Z,40.85
2022-10-08T06:46:24.035Z,41.03
2022-10-08T06:48:50.892Z,40.55
2022-10-08T06:51:18.810Z,39.63
2022-10-08T06:53:51.550Z,39.80
2022-10-08T06:56:18.181Z,39.38
2022-10-08T06:58:46.053Z,39.05
2022-10-08T07:01:17.372Z,38.65
2022-10-08T07:03:44.441Z,37.00
2022-10-08T07:06:12.755Z,38.45
2022-10-08T07:08:40.081Z,37.90
2022-10-08T07:11:17.026Z,37.45
2022-10-08T07:13:44.838Z,37.97
2022-10-08T07:16:20.548Z,37.35
2022-10-08T07:21:17.955Z,38.28
2022-10-08T07:23:44.988Z,36.72
2022-10-08T07:26:18.254Z,37.80
2022-10-08T07:29:04.296Z,38.05
2022-10-08T07:31:33.757Z,35.58
2022-10-08T07:34:02.694Z,36.97
2022-10-08T07:36:30.341Z,38.65
2022-10-08T07:39:01.839Z,34.40
2022-10-08T07:41:30.032Z,34.67
2022-10-08T07:43:59.767Z,35.17
2022-10-08T07:46:29.385Z,37.13
2022-10-08T07:48:59.156Z,34.28
2022-10-08T07:51:27.231Z,35.03
2022-10-08T07:53:55.212Z,34.20
2022-10-08T07:56:25.318Z,32.80
2022-10-08T07:58:52.320Z,33.05
2022-10-08T08:01:21.823Z,33.85
2022-10-08T08:03:59.413Z,35.20
2022-10-08T08:06:27.886Z,34.88
2022-10-08T08:08:54.841Z,34.42
2022-10-08T08:11:25.254Z,33.25
2022-10-08T08:13:56.565Z,34.75
2022-10-08T08:16:25.967Z,34.45
2022-10-08T08:18:55.910Z,32.60
2022-10-08T08:21:26.875Z,34.08
2022-10-08T08:23:55.704Z,32.88
2022-10-08T08:26:28.792Z,32.65
2022-10-08T08:28:58.066Z,32.83
2022-10-08T08:31:25.978Z,32.10
2022-10-08T08:33:55.506Z,32.65
2022-10-08T08:36:27.999Z,31.13
2022-10-08T08:38:54.717Z,31.80
2022-10-08T08:41:23.356Z,30.77
2022-10-08T08:43:58.604Z,30.00
2022-10-08T08:46:27.894Z,27.67
2022-10-08T08:48:58.292Z,30.33
2022-10-08T08:51:24.959Z,29.08
2022-10-08T08:53:51.688Z,31.00
2022-10-08T08:56:22.756Z,29.08
2022-10-08T08:59:00.149Z,29.58
2022-10-08T09:01:35.910Z,29.58
2022-10-08T09:04:11.832Z,30.65
2022-10-08T09:06:39.829Z,30.85
2022-10-08T09:09:24.898Z,31.77
2022-10-08T09:11:51.601Z,32.13
2022-10-08T09:14:33.558Z,31.20
2022-10-08T09:17:09.576Z,30.92
2022-10-08T09:19:39.172Z,28.70
2022-10-08T09:22:23.472Z,30.20
2022-10-08T09:24:55.190Z,29.73
2022-10-08T09:27:21.796Z,32.33
2022-10-08T09:29:48.448Z,30.75
2022-10-08T09:32:19.048Z,29.27
2022-10-08T09:34:48.382Z,33.05
2022-10-08T09:37:25.925Z,32.00
2022-10-08T09:40:08.417Z,29.33
2022-10-08T09:42:35.024Z,31.83
2022-10-08T09:45:04.002Z,32.08
2022-10-08T09:47:31.008Z,31.40
2022-10-08T09:50:19.130Z,30.33
2022-10-08T09:52:49.921Z,31.60
2022-10-08T09:55:16.727Z,30.55
2022-10-08T09:57:46.959Z,32.92
2022-10-08T10:00:31.772Z,31.40
2022-10-08T10:03:00.325Z,31.30
2022-10-08T10:05:29.875Z,31.17
2022-10-08T10:07:57.022Z,32.53
2022-10-08T10:10:24.593Z,30.80
2022-10-08T10:12:56.362Z,31.30
2022-10-08T10:15:31.534Z,32.92
2022-10-08T10:18:02.350Z,32.70
2022-10-08T10:20:36.536Z,33.50
2022-10-08T10:23:11.261Z,34.70
2022-10-08T10:25:46.075Z,33.33
2022-10-08T10:28:21.108Z,32.75
2022-10-08T10:31:03.184Z,32.05
2022-10-08T10:33:34.382Z,31.50
2022-10-08T10:36:06.859Z,31.17
2022-10-08T10:38:43.190Z,28.95
2022-10-08T10:41:11.041Z,30.70
2022-10-08T10:43:45.067Z,32.17
2022-10-08T10:46:27.014Z,32.17
2022-10-08T10:48:55.220Z,32.22
2022-10-08T10:51:36.976Z,31.08
2022-10-08T10:54:11.512Z,31.30
2022-10-08T10:56:46.117Z,31.10
2022-10-08T10:59:31.075Z,31.30
2022-10-08T11:02:03.961Z,31.80
2022-10-08T11:04:43.085Z,31.77
2022-10-08T11:07:25.411Z,29.77
2022-10-08T11:10:11.954Z,31.20
2022-10-08T11:12:53.020Z,30.73
2022-10-08T11:15:30.814Z,30.95
2022-10-08T11:18:23.303Z,29.67
2022-10-08T11:21:21.662Z,31.25
2022-10-08T11:24:03.508Z,32.20
2022-10-08T11:26:34.247Z,30.92
2022-10-08T11:29:16.067Z,32.22
2022-10-08T11:31:46.397Z,30.00
2022-10-08T11:34:21.822Z,30.35
2022-10-08T11:37:15.575Z,30.00
2022-10-08T11:40:12.732Z,30.55
2022-10-08T11:42:56.390Z,29.42
2022-10-08T11:45:23.089Z,28.45
2022-10-08T11:47:54.561Z,27.88
2022-10-08T11:50:23.545Z,29.55
2022-10-08T11:52:50.588Z,28.58
2022-10-08T11:55:25.730Z,28.10
2022-10-08T11:58:07.583Z,27.42
2022-10-08T12:00:45.333Z,27.60
2022-10-08T12:03:33.298Z,27.38
2022-10-08T12:06:15.279Z,27.52
2022-10-08T12:08:53.242Z,25.20
2022-10-08T12:11:38.638Z,26.45
2022-10-08T12:14:28.457Z,24.92
2022-10-08T12:16:55.018Z,24.63
2022-10-08T12:19:38.005Z,25.63
2022-10-08T12:22:25.254Z,27.27
2022-10-08T12:24:57.714Z,24.23
2022-10-08T12:27:27.476Z,25.08
2022-10-08T12:30:16.873Z,24.60
2022-10-08T12:32:43.522Z,25.63
2022-10-08T12:35:28.486Z,26.13
2022-10-08T12:38:30.482Z,22.60
2022-10-08T12:41:11.963Z,22.00
2022-10-08T12:44:00.785Z,23.83
2022-10-08T12:46:57.893Z,25.20
2022-10-08T12:49:30.687Z,23.60
2022-10-08T12:51:57.602Z,22.45
2022-10-08T12:54:27.921Z,23.88
2022-10-08T12:56:55.541Z,24.80
2022-10-08T12:59:25.377Z,25.48
2022-10-08T13:01:53.942Z,24.73
2022-10-08T13:04:26.204Z,24.02
2022-10-08T13:06:55.203Z,23.10
2022-10-08T13:09:21.816Z,24.15
2022-10-08T13:11:53.716Z,24.10
2022-10-08T13:14:24.385Z,23.63
2022-10-08T13:16:51.357Z,24.02
2022-10-08T13:19:20.187Z,23.10
2022-10-08T13:22:05.140Z,22.73
2022-10-08T13:24:40.760Z,24.65
2022-10-08T13:27:23.701Z,22.92
2022-10-08T13:29:50.362Z,21.98
2022-10-08T13:32:21.853Z,22.13
2022-10-08T13:34:52.469Z,24.00
2022-10-08T13:37:27.836Z,22.50
2022-10-08T13:39:58.846Z,25.88
2022-10-08T13:42:29.893Z,22.55
2022-10-08T13:44:59.172Z,25.17
2022-10-08T13:47:27.397Z,23.25
2022-10-08T13:50:00.350Z,22.23
2022-10-08T13:52:29.718Z,22.23
2022-10-08T13:55:01.494Z,21.77
2022-10-08T13:57:28.161Z,21.67
2022-10-08T13:59:55.239Z,21.38
2022-10-08T14:02:21.947Z,21.73
2022-10-08T14:04:48.686Z,21.75
2022-10-08T14:07:16.301Z,20.75
2022-10-08T14:09:42.939Z,21.48
2022-10-08T14:12:10.241Z,21.75
2022-10-08T14:14:36.921Z,23.17
2022-10-08T14:17:03.519Z,22.52
2022-10-08T14:19:30.227Z,22.48
2022-10-08T14:21:57.387Z,20.52
2022-10-08T14:24:24.056Z,21.00
2022-10-08T14:26:50.874Z,20.58
2022-10-08T14:29:17.558Z,18.42
2022-10-08T14:31:44.290Z,19.02
2022-10-08T14:34:10.988Z,19.25
2022-10-08T14:36:41.118Z,19.55
2022-10-08T14:39:09.951Z,21.98
2022-10-08T14:41:37.002Z,17.85
2022-10-08T14:44:03.654Z,19.63
2022-10-08T14:46:30.340Z,18.58
2022-10-08T14:48:57.084Z,17.58
2022-10-08T14:51:23.821Z,18.38
2022-10-08T14:53:52.279Z,18.60
2022-10-08T14:56:18.938Z,18.90
2022-10-08T14:58:45.800Z,19.48
2022-10-08T15:01:12.437Z,19.33
2022-10-08T15:03:39.098Z,19.08
2022-10-08T15:06:05.967Z,18.17
2022-10-08T15:08:33.573Z,18.63
2022-10-08T15:11:02.302Z,19.30
2022-10-08T15:13:29.184Z,19.45
2022-10-08T15:15:55.830Z,17.23
2022-10-08T15:18:23.003Z,18.25
2022-10-08T15:20:59.256Z,18.73
2022-10-08T15:23:27.048Z,19.70
2022-10-08T15:26:11.993Z,19.25
2022-10-08T15:28:38.690Z,21.40
2022-10-08T15:31:12.832Z,21.98
2022-10-08T15:33:40.937Z,25.02
2022-10-08T15:36:31.942Z,22.33
2022-10-08T15:39:08.713Z,20.52
2022-10-08T15:41:37.200Z,21.35
2022-10-08T15:44:09.494Z,18.92
2022-10-08T15:46:36.954Z,19.95
2022-10-08T15:49:03.991Z,20.65
2022-10-08T15:51:31.753Z,20.40
2022-10-08T15:53:59.114Z,20.83
2022-10-08T15:56:26.156Z,22.20
2022-10-08T15:58:53.374Z,21.73
2022-10-08T16:01:23.481Z,22.42
2022-10-08T16:03:52.565Z,24.10
2022-10-08T16:06:22.423Z,24.98
2022-10-08T16:08:49.402Z,21.83
2022-10-08T16:11:23.130Z,22.98
2022-10-08T16:13:55.751Z,21.48
2022-10-08T16:16:26.816Z,20.98
2022-10-08T16:19:01.199Z,22.40
2022-10-08T16:21:33.686Z,21.98
2022-10-08T16:24:00.872Z,21.35
2022-10-08T16:26:29.297Z,21.88
2022-10-08T16:28:59.035Z,23.15
2022-10-08T16:31:28.231Z,25.45
2022-10-08T16:33:57.252Z,31.25
2022-10-08T16:36:24.629Z,29.95
2022-10-08T16:38:55.129Z,27.40
2022-10-08T16:41:23.741Z,26.25
2022-10-08T16:43:53.187Z,22.58
2022-10-08T16:46:22.531Z,21.35
2022-10-08T16:48:52.234Z,21.73
2022-10-08T16:51:19.681Z,22.02
2022-10-08T16:53:49.523Z,21.65
2022-10-08T16:56:17.295Z,19.65
2022-10-08T16:58:44.015Z,22.73
2022-10-08T17:01:10.744Z,23.38
2022-10-08T17:03:37.655Z,21.83
2022-10-08T17:06:04.817Z,21.33
2022-10-08T17:08:31.495Z,20.95
2022-10-08T17:11:03.765Z,23.80
2022-10-08T17:13:30.436Z,23.67
2022-10-08T17:15:59.321Z,30.05
2022-10-08T17:18:27.542Z,45.70
2022-10-08T17:20:55.999Z,35.72
2022-10-08T17:23:24.556Z,28.23
2022-10-08T17:25:57.196Z,25.50
2022-10-08T17:28:29.442Z,19.27
2022-10-08T17:30:58.988Z,19.85
2022-10-08T17:33:28.173Z,19.05
2022-10-08T17:36:05.732Z,17.00
2022-10-08T17:38:33.605Z,14.95
2022-10-08T17:41:00.628Z,16.40
2022-10-08T17:43:27.394Z,16.88
2022-10-08T17:45:54.119Z,17.10
2022-10-08T17:48:21.109Z,18.00
2022-10-08T17:50:47.792Z,15.48
2022-10-08T17:53:14.518Z,14.60
2022-10-08T17:55:41.184Z,15.70
2022-10-08T17:58:07.859Z,14.98
2022-10-08T18:00:34.510Z,15.07
2022-10-08T18:03:01.332Z,15.02
2022-10-08T18:05:28.069Z,14.02
2022-10-08T18:07:54.704Z,13.90
2022-10-08T18:10:21.487Z,14.48
2022-10-08T18:12:48.690Z,15.60
2022-10-08T18:15:15.729Z,17.25
2022-10-08T18:17:42.382Z,14.95
2022-10-08T18:20:09.187Z,15.20
2022-10-08T18:22:38.593Z,16.63
2022-10-08T18:25:05.758Z,15.68
2022-10-08T18:27:32.392Z,15.35
2022-10-08T18:29:59.068Z,16.65
2022-10-08T18:32:25.756Z,16.95
2022-10-08T18:34:52.425Z,20.40
2022-10-08T18:37:20.623Z,17.33
2022-10-08T18:39:47.385Z,17.88
2022-10-08T18:42:14.023Z,16.73
2022-10-08T18:44:40.746Z,15.38
2022-10-08T18:47:07.786Z,14.77
2022-10-08T18:49:35.114Z,15.65
2022-10-08T18:52:02.163Z,15.77
2022-10-08T18:54:28.993Z,15.00
2022-10-08T18:56:56.905Z,15.57
2022-10-08T18:59:24.195Z,15.27
2022-10-08T19:01:50.977Z,16.13
2022-10-08T19:04:21.182Z,16.08
2022-10-08T19:06:50.398Z,15.07
2022-10-08T19:09:17.302Z,22.75
2022-10-08T19:11:47.697Z,19.58
2022-10-08T19:14:17.598Z,15.23
2022-10-08T19:16:45.235Z,14.63
2022-10-08T19:19:22.206Z,16.17
2022-10-08T19:21:50.184Z,15.40
2022-10-08T19:24:19.984Z,16.70
2022-10-08T19:26:47.609Z,14.73
2022-10-08T19:29:23.706Z,15.63
2022-10-08T19:31:50.600Z,16.52
2022-10-08T19:34:20.743Z,15.10
2022-10-08T19:36:48.329Z,15.52
2022-10-08T19:39:18.415Z,16.40
2022-10-08T19:41:45.760Z,16.30
2022-10-08T19:44:12.843Z,15.65
2022-10-08T19:46:39.627Z,16.05
2022-10-08T19:49:07.854Z,18.00
2022-10-08T19:51:35.594Z,17.20
2022-10-08T19:54:02.387Z,16.98
2022-10-08T19:56:31.030Z,17.13
2022-10-08T19:58:57.992Z,18.00
2022-10-08T20:01:28.773Z,17.73
2022-10-08T20:03:56.990Z,17.95
2022-10-08T20:06:26.812Z,18.20
2022-10-08T20:08:55.169Z,19.08
2022-10-08T20:11:22.505Z,18.85
2022-10-08T20:13:51.186Z,19.30
2022-10-08T20:16:24.952Z,19.63
2022-10-08T20:18:54.439Z,20.17
2022-10-08T20:21:22.730Z,19.40
2022-10-08T20:23:52.877Z,20.02
2022-10-08T20:26:25.289Z,20.85
2022-10-08T20:28:54.703Z,20.48
2022-10-08T20:31:24.435Z,20.88
2022-10-08T20:34:02.273Z,21.23
2022-10-08T20:36:30.100Z,20.00
2022-10-08T20:38:57.885Z,20.42
2022-10-08T20:41:30.602Z,22.10
2022-10-08T20:44:02.937Z,21.50
2022-10-08T20:46:31.344Z,22.05
2022-10-08T20:48:58.283Z,22.20
2022-10-08T20:51:26.459Z,23.48
2022-10-08T20:53:56.730Z,22.70
2022-10-08T20:56:24.071Z,20.70
2022-10-08T20:58:51.326Z,21.25
2022-10-08T21:01:20.959Z,21.92
2022-10-08T21:03:48.014Z,23.25
2022-10-08T21:06:18.783Z,22.05
2022-10-08T21:08:47.598Z,21.75
2022-10-08T21:11:18.138Z,22.40
2022-10-08T21:13:45.437Z,23.73
2022-10-08T21:16:17.115Z,23.80
2022-10-08T21:18:44.236Z,22.15
2022-10-08T21:21:14.124Z,24.17
2022-10-08T21:23:41.788Z,23.70
2022-10-08T21:26:11.826Z,22.45
2022-10-08T21:28:39.448Z,22.83
2022-10-08T21:31:07.864Z,22.80
2022-10-08T21:33:36.086Z,23.80
2022-10-08T21:36:03.943Z,24.20
2022-10-08T21:38:36.530Z,23.80
2022-10-08T21:41:11.775Z,24.25
2022-10-08T21:43:40.157Z,24.23
2022-10-08T21:46:08.133Z,24.00
2022-10-08T21:48:34.869Z,24.58
2022-10-08T21:51:07.253Z,25.55
2022-10-08T21:53:35.894Z,24.35
2022-10-08T21:56:06.782Z,25.95
2022-10-08T21:58:39.095Z,24.58
2022-10-08T22:01:18.023Z,25.08
2022-10-08T22:03:44.726Z,26.20
2022-10-08T22:06:11.366Z,26.10
2022-10-08T22:08:38.087Z,26.58
2022-10-08T22:11:06.142Z,26.67
2022-10-08T22:13:33.284Z,27.40
2022-10-08T22:16:02.433Z,28.10
2022-10-08T22:18:30.671Z,29.42
2022-10-08T22:21:02.230Z,28.85
2022-10-08T22:23:28.866Z,29.95
2022-10-08T22:25:57.698Z,28.85
2022-10-08T22:28:25.675Z,29.40
2022-10-08T22:30:52.505Z,30.27
2022-10-08T22:33:19.919Z,29.63
2022-10-08T22:35:47.445Z,29.67
2022-10-08T22:38:14.184Z,30.38
2022-10-08T22:40:40.929Z,29.35
2022-10-08T22:43:07.593Z,29.73
2022-10-08T22:45:39.528Z,29.75
2022-10-08T22:48:06.234Z,28.95
2022-10-08T22:50:35.639Z,28.88
2022-10-08T22:53:02.499Z,29.27
2022-10-08T22:55:29.632Z,29.00
2022-10-08T22:57:57.220Z,30.05
2022-10-08T23:00:24.043Z,30.92
2022-10-08T23:02:51.004Z,30.55
2022-10-08T23:05:17.878Z,30.30
2022-10-08T23:07:44.505Z,29.90
2022-10-08T23:10:11.129Z,29.25
2022-10-08T23:12:37.929Z,29.92
2022-10-08T23:15:04.841Z,29.20
2022-10-08T23:17:31.525Z,27.83
2022-10-08T23:19:58.210Z,27.63
2022-10-08T23:22:25.225Z,28.92
2022-10-08T23:24:51.844Z,29.20
2022-10-08T23:27:18.469Z,29.80
2022-10-08T23:29:45.149Z,29.45
2022-10-08T23:32:11.783Z,29.75
2022-10-08T23:34:38.442Z,29.30
2022-10-08T23:37:05.036Z,28.48
2022-10-08T23:39:31.637Z,28.30
2022-10-08T23:41:59.642Z,29.27
2022-10-08T23:44:26.361Z,27.30
2022-10-08T23:46:52.996Z,28.02
2022-10-08T23:49:19.685Z,28.10
2022-10-08T23:51:46.471Z,28.00
2022-10-08T23:54:13.095Z,25.67
2022-10-08T23:56:39.669Z,26.65
2022-10-08T23:59:06.390Z,25.10
